createdAt,value
2023-03-29T00:02:19.660Z,5.63
2023-03-29T00:04:46.978Z,8.32
2023-03-29T00:07:14.109Z,8.82
2023-03-29T00:09:40.634Z,6.82
2023-03-29T00:12:07.196Z,7.63
2023-03-29T00:14:33.928Z,6.05
2023-03-29T00:17:00.635Z,5.63
2023-03-29T00:19:27.129Z,5.32
2023-03-29T00:21:53.605Z,3.83
2023-03-29T00:24:21.357Z,6.80
2023-03-29T00:26:48.278Z,5.32
2023-03-29T00:29:14.791Z,7.22
2023-03-29T00:31:41.375Z,4.90
2023-03-29T00:34:07.914Z,5.97
2023-03-29T00:36:34.414Z,6.90
2023-03-29T00:39:01.079Z,11.07
2023-03-29T00:41:27.635Z,5.78
2023-03-29T00:44:01.610Z,9.38
2023-03-29T00:46:29.766Z,7.13
2023-03-29T00:49:07.273Z,4.55
2023-03-29T00:51:34.321Z,4.13
2023-03-29T00:54:01.562Z,8.00
2023-03-29T00:56:29.979Z,3.00
2023-03-29T00:59:03.703Z,6.97
2023-03-29T01:01:45.646Z,13.23
2023-03-29T01:04:41.555Z,9.90
2023-03-29T01:07:30.777Z,7.05
2023-03-29T01:10:19.084Z,6.60
2023-03-29T01:12:57.646Z,3.58
2023-03-29T01:15:26.414Z,8.18
2023-03-29T01:17:55.439Z,5.85
2023-03-29T01:20:26.673Z,8.38
2023-03-29T01:23:13.986Z,4.97
2023-03-29T01:25:58.095Z,6.78
2023-03-29T01:28:34.016Z,4.72
2023-03-29T01:31:09.179Z,2.72
2023-03-29T01:33:42.746Z,5.88
2023-03-29T01:36:27.191Z,5.88
2023-03-29T01:39:05.050Z,9.20
2023-03-29T01:41:46.691Z,7.95
2023-03-29T01:44:51.523Z,9.63
2023-03-29T01:47:33.168Z,4.47
2023-03-29T01:50:17.110Z,6.57
2023-03-29T01:53:01.249Z,8.57
2023-03-29T01:55:31.749Z,6.75
2023-03-29T01:57:59.040Z,7.80
2023-03-29T02:00:27.630Z,7.57
2023-03-29T02:02:57.037Z,6.75
2023-03-29T02:05:24.390Z,7.55
2023-03-29T02:07:51.531Z,10.75
2023-03-29T02:10:18.079Z,5.85
2023-03-29T02:12:44.596Z,13.80
2023-03-29T02:15:13.133Z,7.97
2023-03-29T02:17:39.637Z,10.30
2023-03-29T02:20:14.475Z,7.63
2023-03-29T02:22:52.168Z,9.02
2023-03-29T02:25:18.915Z,7.90
2023-03-29T02:27:45.523Z,6.72
2023-03-29T02:30:12.481Z,7.03
2023-03-29T02:33:03.648Z,5.93
2023-03-29T02:35:34.170Z,5.78
2023-03-29T02:38:02.459Z,6.68
2023-03-29T02:40:28.975Z,9.68
2023-03-29T02:42:55.937Z,10.65
2023-03-29T02:45:22.421Z,5.90
2023-03-29T02:47:51.756Z,7.15
2023-03-29T02:50:19.798Z,4.85
2023-03-29T02:52:59.227Z,10.85
2023-03-29T02:55:26.370Z,7.18
2023-03-29T02:57:52.911Z,7.40
2023-03-29T03:00:20.179Z,12.13
2023-03-29T03:02:47.801Z,9.50
2023-03-29T03:05:14.331Z,12.00
2023-03-29T03:07:40.852Z,5.25
2023-03-29T03:10:09.976Z,11.95
2023-03-29T03:12:37.413Z,5.75
2023-03-29T03:15:05.478Z,7.20
2023-03-29T03:17:33.280Z,7.70
2023-03-29T03:20:00.007Z,9.73
2023-03-29T03:22:26.508Z,8.32
2023-03-29T03:24:52.956Z,9.40
2023-03-29T03:27:19.423Z,8.63
2023-03-29T03:29:46.237Z,14.80
2023-03-29T03:32:13.481Z,5.55
2023-03-29T03:34:39.940Z,7.22
2023-03-29T03:37:06.412Z,7.65
2023-03-29T03:39:33.330Z,11.57
2023-03-29T03:41:59.780Z,10.18
2023-03-29T03:44:26.288Z,9.48
2023-03-29T03:46:52.735Z,9.90
2023-03-29T03:49:19.246Z,5.90
2023-03-29T03:51:45.841Z,12.73
2023-03-29T03:54:12.312Z,7.72
2023-03-29T03:56:38.874Z,9.77
2023-03-29T03:59:05.568Z,6.38
2023-03-29T04:01:32.136Z,9.38
2023-03-29T04:03:58.685Z,13.70
2023-03-29T04:06:25.490Z,17.23
2023-03-29T04:08:52.092Z,13.02
2023-03-29T04:11:19.032Z,9.13
2023-03-29T04:13:46.350Z,14.40
2023-03-29T04:16:12.920Z,8.57
2023-03-29T04:18:39.498Z,10.82
2023-03-29T04:21:06.286Z,11.35
2023-03-29T04:23:32.752Z,5.30
2023-03-29T04:25:59.377Z,9.77
2023-03-29T04:28:25.926Z,13.73
2023-03-29T04:30:52.683Z,9.63
2023-03-29T04:33:19.229Z,13.05
2023-03-29T04:35:45.902Z,13.10
2023-03-29T04:38:12.483Z,11.65
2023-03-29T04:40:38.927Z,8.07
2023-03-29T04:43:05.415Z,10.23
2023-03-29T04:45:31.857Z,7.32
2023-03-29T04:47:59.602Z,13.40
2023-03-29T04:50:26.706Z,10.70
2023-03-29T04:52:53.146Z,9.55
2023-03-29T04:55:19.625Z,13.45
2023-03-29T04:57:46.169Z,14.00
2023-03-29T05:00:16.766Z,11.07
2023-03-29T05:02:44.040Z,9.48
2023-03-29T05:05:11.483Z,11.18
2023-03-29T05:07:38.029Z,8.82
2023-03-29T05:10:04.878Z,8.82
2023-03-29T05:12:31.572Z,9.32
2023-03-29T05:14:58.142Z,12.50
2023-03-29T05:17:27.478Z,9.25
2023-03-29T05:19:54.280Z,12.77
2023-03-29T05:22:21.567Z,11.70
2023-03-29T05:24:48.353Z,15.88
2023-03-29T05:27:14.916Z,11.95
2023-03-29T05:29:41.766Z,8.75
2023-03-29T05:32:08.374Z,11.48
2023-03-29T05:34:35.309Z,11.88
2023-03-29T05:37:01.809Z,13.15
2023-03-29T05:39:28.292Z,8.20
2023-03-29T05:41:55.266Z,15.60
2023-03-29T05:44:21.824Z,10.20
2023-03-29T05:46:48.273Z,14.43
2023-03-29T05:49:14.821Z,9.88
2023-03-29T05:51:42.653Z,15.70
2023-03-29T05:54:09.085Z,11.23
2023-03-29T05:56:35.568Z,14.65
2023-03-29T05:59:02.134Z,13.85
2023-03-29T06:01:28.690Z,9.52
2023-03-29T06:03:57.404Z,13.15
2023-03-29T06:06:24.070Z,8.57
2023-03-29T06:08:50.638Z,9.27
2023-03-29T06:11:17.695Z,21.42
2023-03-29T06:13:44.258Z,13.98
2023-03-29T06:16:10.822Z,13.60
2023-03-29T06:18:40.198Z,12.38
2023-03-29T06:21:07.956Z,14.30
2023-03-29T06:23:34.742Z,14.77
2023-03-29T06:26:01.516Z,9.73
2023-03-29T06:28:28.145Z,14.38
2023-03-29T06:30:56.383Z,14.57
2023-03-29T06:33:23.232Z,15.20
2023-03-29T06:35:49.933Z,14.10
2023-03-29T06:38:16.588Z,11.63
2023-03-29T06:40:44.592Z,15.40
2023-03-29T06:43:11.058Z,7.72
2023-03-29T06:45:37.820Z,11.13
2023-03-29T06:48:05.091Z,13.50
2023-03-29T06:50:31.764Z,8.15
2023-03-29T06:52:58.350Z,10.73
2023-03-29T06:55:26.026Z,9.38
2023-03-29T06:57:53.871Z,10.10
2023-03-29T07:00:29.961Z,10.73
2023-03-29T07:02:58.419Z,13.93
2023-03-29T07:05:27.971Z,14.85
2023-03-29T07:07:54.648Z,12.07
2023-03-29T07:10:21.900Z,15.15
2023-03-29T07:12:49.252Z,11.80
2023-03-29T07:15:16.164Z,9.45
2023-03-29T07:17:42.757Z,10.27
2023-03-29T07:20:13.599Z,8.45
2023-03-29T07:22:43.927Z,15.77
2023-03-29T07:25:12.150Z,16.90
2023-03-29T07:27:39.627Z,14.13
2023-03-29T07:30:11.156Z,7.13
2023-03-29T07:32:38.849Z,7.00
2023-03-29T07:35:06.411Z,7.68
2023-03-29T07:37:34.169Z,9.80
2023-03-29T07:40:03.313Z,8.30
2023-03-29T07:42:30.194Z,6.82
2023-03-29T07:44:58.182Z,10.63
2023-03-29T07:47:24.812Z,7.88
2023-03-29T07:49:51.349Z,8.68
2023-03-29T07:52:18.201Z,10.85
2023-03-29T07:54:46.110Z,8.95
2023-03-29T07:57:12.620Z,10.05
2023-03-29T07:59:39.247Z,11.27
2023-03-29T08:02:06.587Z,8.88
2023-03-29T08:04:33.240Z,14.52
2023-03-29T08:06:59.907Z,10.75
2023-03-29T08:09:27.213Z,8.73
2023-03-29T08:11:53.696Z,10.27
2023-03-29T08:14:21.880Z,10.32
2023-03-29T08:16:48.421Z,8.23
2023-03-29T08:19:14.965Z,10.20
2023-03-29T08:21:41.785Z,9.10
2023-03-29T08:24:08.298Z,8.45
2023-03-29T08:26:34.810Z,14.98
2023-03-29T08:29:01.313Z,11.13
2023-03-29T08:31:28.062Z,9.27
2023-03-29T08:33:54.565Z,13.02
2023-03-29T08:36:21.137Z,14.07
2023-03-29T08:38:47.635Z,15.77
2023-03-29T08:41:32.824Z,7.63
2023-03-29T08:44:41.667Z,8.43
2023-03-29T08:47:13.804Z,6.63
2023-03-29T08:49:40.361Z,9.73
2023-03-29T08:52:21.414Z,11.13
2023-03-29T08:54:48.528Z,8.27
2023-03-29T08:57:22.095Z,8.75
2023-03-29T08:59:51.342Z,7.65
2023-03-29T09:02:20.440Z,6.70
2023-03-29T09:04:49.232Z,7.43
2023-03-29T09:07:16.506Z,12.93
2023-03-29T09:09:43.024Z,11.25
2023-03-29T09:12:31.454Z,6.78
2023-03-29T09:15:00.746Z,8.02
2023-03-29T09:17:35.969Z,8.48
2023-03-29T09:20:20.924Z,7.57
2023-03-29T09:23:10.250Z,6.60
2023-03-29T09:25:52.608Z,8.75
2023-03-29T09:31:07.422Z,7.90
2023-03-29T09:33:59.052Z,7.20
2023-03-29T09:36:31.547Z,4.45
2023-03-29T09:38:58.067Z,12.15
2023-03-29T09:41:35.856Z,12.23
2023-03-29T09:44:17.671Z,5.07
2023-03-29T09:46:56.338Z,6.90
2023-03-29T09:49:31.561Z,7.60
2023-03-29T09:52:01.406Z,7.97
2023-03-29T09:54:28.144Z,9.77
2023-03-29T09:56:54.725Z,9.48
2023-03-29T09:59:21.553Z,5.82
2023-03-29T10:01:48.191Z,7.43
2023-03-29T10:04:14.959Z,5.95
2023-03-29T10:06:51.270Z,6.97
2023-03-29T10:09:21.618Z,8.30
2023-03-29T10:11:52.408Z,6.90
2023-03-29T10:14:21.333Z,4.80
2023-03-29T10:16:48.883Z,5.07
2023-03-29T10:19:23.287Z,4.50
2023-03-29T10:21:51.545Z,8.68
2023-03-29T10:24:21.669Z,6.53
2023-03-29T10:26:51.740Z,5.95
2023-03-29T10:29:18.201Z,6.47
2023-03-29T10:31:44.693Z,5.72
2023-03-29T10:34:12.836Z,4.82
2023-03-29T10:36:41.333Z,6.85
2023-03-29T10:39:08.112Z,3.90
2023-03-29T10:41:34.767Z,4.85
2023-03-29T10:44:01.429Z,4.05
2023-03-29T10:46:30.343Z,4.25
2023-03-29T10:49:04.829Z,7.07
2023-03-29T10:51:32.282Z,5.35
2023-03-29T10:53:59.284Z,4.10
2023-03-29T10:56:43.237Z,9.52
2023-03-29T10:59:14.801Z,4.80
2023-03-29T11:01:44.570Z,5.65
2023-03-29T11:04:23.137Z,7.60
2023-03-29T11:07:05.376Z,6.70
2023-03-29T11:09:47.721Z,4.75
2023-03-29T11:12:26.493Z,4.43
2023-03-29T11:14:58.428Z,8.93
2023-03-29T11:17:27.754Z,7.50
2023-03-29T11:20:00.922Z,7.47
2023-03-29T11:22:45.825Z,6.35
2023-03-29T11:25:45.707Z,6.50
2023-03-29T11:28:12.110Z,5.75
2023-03-29T11:31:06.352Z,4.68
2023-03-29T11:33:42.255Z,7.35
2023-03-29T11:36:17.705Z,4.72
2023-03-29T11:39:11.377Z,14.77
2023-03-29T11:41:43.195Z,5.78
2023-03-29T11:44:30.215Z,8.87
2023-03-29T11:47:07.162Z,4.88
2023-03-29T11:49:38.465Z,5.60
2023-03-29T11:52:29.306Z,6.10
2023-03-29T11:54:58.859Z,6.18
2023-03-29T11:57:43.066Z,5.00
2023-03-29T12:00:22.460Z,5.03
2023-03-29T12:02:51.862Z,6.43
2023-03-29T12:05:23.866Z,5.20
2023-03-29T12:07:56.747Z,4.80
2023-03-29T12:10:26.530Z,9.07
2023-03-29T12:12:57.503Z,5.28
2023-03-29T12:15:24.854Z,7.43
2023-03-29T12:18:05.309Z,5.95
2023-03-29T12:20:34.424Z,5.60
2023-03-29T12:23:01.077Z,7.05
2023-03-29T12:26:03.059Z,5.57
2023-03-29T12:28:50.826Z,5.30
2023-03-29T12:31:21.317Z,9.02
2023-03-29T12:34:03.591Z,6.47
2023-03-29T12:36:43.111Z,5.28
2023-03-29T12:39:16.425Z,7.75
2023-03-29T12:41:45.662Z,7.32
2023-03-29T12:44:13.476Z,5.35
2023-03-29T12:46:39.952Z,6.78
2023-03-29T12:49:29.059Z,7.45
2023-03-29T12:51:57.334Z,11.57
2023-03-29T12:54:27.889Z,4.63
2023-03-29T12:57:00.479Z,6.63
2023-03-29T12:59:37.639Z,5.20
2023-03-29T13:02:13.982Z,6.57
2023-03-29T13:04:43.510Z,5.30
2023-03-29T13:07:32.131Z,5.72
2023-03-29T13:10:03.299Z,5.20
2023-03-29T13:12:42.775Z,8.93
2023-03-29T13:15:16.590Z,5.22
2023-03-29T13:18:20.515Z,5.68
2023-03-29T13:20:59.566Z,5.10
2023-03-29T13:23:38.365Z,5.00
2023-03-29T13:26:23.224Z,4.82
2023-03-29T13:29:22.461Z,5.35
2023-03-29T13:31:59.551Z,4.85
2023-03-29T13:34:45.207Z,5.30
2023-03-29T13:37:34.155Z,6.25
2023-03-29T13:40:00.704Z,6.47
2023-03-29T13:42:33.148Z,5.53
2023-03-29T13:45:31.838Z,6.07
2023-03-29T13:48:27.225Z,8.32
2023-03-29T13:50:58.099Z,4.97
2023-03-29T13:53:44.290Z,4.82
2023-03-29T13:56:15.535Z,4.68
2023-03-29T13:58:44.669Z,7.85
2023-03-29T14:01:31.577Z,4.65
2023-03-29T14:03:58.486Z,5.45
2023-03-29T14:06:31.349Z,7.05
2023-03-29T14:08:57.835Z,9.57
2023-03-29T14:11:28.393Z,7.53
2023-03-29T14:13:56.080Z,4.80
2023-03-29T14:16:22.588Z,5.47
2023-03-29T14:18:51.375Z,4.93
2023-03-29T14:21:18.215Z,7.25
2023-03-29T14:23:46.502Z,5.10
2023-03-29T14:26:20.815Z,4.15
2023-03-29T14:28:56.488Z,7.82
2023-03-29T14:31:23.829Z,4.78
2023-03-29T14:33:53.779Z,4.85
2023-03-29T14:36:21.259Z,4.15
2023-03-29T14:38:53.208Z,4.70
2023-03-29T14:41:21.000Z,6.53
2023-03-29T14:43:49.012Z,5.20
2023-03-29T14:46:17.051Z,8.25
2023-03-29T14:48:43.529Z,9.05
2023-03-29T14:51:10.343Z,5.00
2023-03-29T14:53:38.050Z,6.70
2023-03-29T14:56:05.134Z,4.97
2023-03-29T14:58:32.922Z,7.55
2023-03-29T15:01:08.305Z,4.60
2023-03-29T15:03:55.176Z,5.18
2023-03-29T15:06:22.789Z,4.97
2023-03-29T15:09:02.025Z,13.75
2023-03-29T15:11:31.654Z,14.98
2023-03-29T15:14:01.326Z,6.07
2023-03-29T15:16:27.930Z,5.38
2023-03-29T15:18:54.514Z,5.10
2023-03-29T15:21:21.303Z,5.18
2023-03-29T15:23:55.650Z,5.57
2023-03-29T15:26:40.716Z,5.68
2023-03-29T15:29:14.677Z,7.70
2023-03-29T15:31:41.798Z,7.20
2023-03-29T15:34:13.196Z,5.35
2023-03-29T15:36:46.409Z,5.57
2023-03-29T15:39:13.528Z,6.82
2023-03-29T15:41:40.686Z,5.43
2023-03-29T15:44:07.213Z,6.32
2023-03-29T15:46:33.773Z,4.97
2023-03-29T15:49:00.408Z,5.57
2023-03-29T15:51:26.949Z,5.43
2023-03-29T15:53:53.513Z,4.70
2023-03-29T15:56:20.376Z,5.18
2023-03-29T15:58:46.990Z,6.57
2023-03-29T16:01:36.591Z,11.57
2023-03-29T16:04:06.884Z,5.50
2023-03-29T16:06:33.550Z,5.38
2023-03-29T16:09:00.416Z,4.57
2023-03-29T16:11:28.304Z,5.82
2023-03-29T16:13:55.665Z,7.80
2023-03-29T16:16:22.339Z,5.25
2023-03-29T16:18:48.972Z,12.60
2023-03-29T16:21:18.007Z,5.70
2023-03-29T16:23:45.677Z,5.70
2023-03-29T16:26:13.109Z,11.55
2023-03-29T16:28:39.620Z,5.63
2023-03-29T16:31:06.141Z,5.60
2023-03-29T16:33:32.866Z,6.30
2023-03-29T16:35:59.377Z,5.57
2023-03-29T16:38:25.893Z,8.77
2023-03-29T16:40:53.701Z,7.18
2023-03-29T16:43:20.175Z,11.93
2023-03-29T16:45:46.737Z,7.90
2023-03-29T16:48:14.142Z,6.25
2023-03-29T16:50:40.880Z,5.55
2023-03-29T16:53:07.362Z,5.65
2023-03-29T16:55:34.038Z,8.38
2023-03-29T16:58:00.508Z,7.65
2023-03-29T17:00:27.031Z,6.93
2023-03-29T17:02:53.677Z,5.95
2023-03-29T17:05:20.185Z,11.70
2023-03-29T17:07:46.921Z,8.63
2023-03-29T17:10:13.654Z,7.53
2023-03-29T17:12:40.177Z,6.10
2023-03-29T17:15:07.800Z,7.15
2023-03-29T17:17:34.773Z,5.63
2023-03-29T17:20:01.308Z,8.57
2023-03-29T17:22:27.855Z,11.75
2023-03-29T17:24:54.512Z,7.05
2023-03-29T17:27:21.181Z,6.20
2023-03-29T17:29:47.910Z,9.25
2023-03-29T17:32:14.452Z,10.32
2023-03-29T17:34:41.586Z,8.13
2023-03-29T17:37:09.262Z,7.90
2023-03-29T17:39:37.545Z,6.32
2023-03-29T17:42:04.733Z,6.88
2023-03-29T17:44:33.193Z,9.75
2023-03-29T17:47:00.411Z,9.88
2023-03-29T17:49:26.981Z,9.95
2023-03-29T17:51:53.663Z,7.78
2023-03-29T17:54:20.328Z,11.77
2023-03-29T17:56:46.906Z,6.97
2023-03-29T17:59:13.427Z,7.03
2023-03-29T18:01:40.033Z,8.13
2023-03-29T18:04:06.732Z,6.68
2023-03-29T18:06:33.222Z,9.30
2023-03-29T18:09:01.598Z,8.98
2023-03-29T18:11:28.351Z,10.27
2023-03-29T18:13:54.913Z,8.90
2023-03-29T18:16:22.029Z,9.15
2023-03-29T18:18:48.603Z,7.03
2023-03-29T18:21:16.050Z,9.65
2023-03-29T18:23:47.197Z,10.82
2023-03-29T18:26:14.880Z,8.60
2023-03-29T18:28:41.569Z,9.75
2023-03-29T18:31:08.208Z,7.22
2023-03-29T18:33:35.210Z,8.93
2023-03-29T18:36:08.404Z,8.70
2023-03-29T18:38:36.568Z,8.10
2023-03-29T18:41:03.588Z,10.55
2023-03-29T18:43:30.900Z,9.82
2023-03-29T18:45:57.476Z,11.50
2023-03-29T18:48:24.147Z,8.63
2023-03-29T18:50:52.050Z,8.20
2023-03-29T18:53:19.130Z,9.32
2023-03-29T18:55:45.661Z,9.10
2023-03-29T18:58:12.877Z,8.05
2023-03-29T19:00:39.668Z,8.45
2023-03-29T19:03:07.562Z,11.15
2023-03-29T19:05:37.895Z,8.95
2023-03-29T19:08:05.769Z,11.43
2023-03-29T19:10:36.194Z,9.30
2023-03-29T19:13:02.824Z,11.02
2023-03-29T19:15:29.354Z,8.95
2023-03-29T19:17:55.890Z,9.45
2023-03-29T19:20:25.239Z,12.05
2023-03-29T19:22:52.171Z,11.30
2023-03-29T19:25:18.999Z,8.55
2023-03-29T19:27:46.334Z,12.65
2023-03-29T19:30:13.504Z,9.70
2023-03-29T19:32:40.383Z,9.65
2023-03-29T19:35:08.064Z,9.18
2023-03-29T19:37:34.590Z,9.20
2023-03-29T19:40:01.167Z,11.10
2023-03-29T19:42:27.654Z,11.45
2023-03-29T19:44:54.204Z,9.68
2023-03-29T19:47:20.815Z,12.57
2023-03-29T19:49:47.348Z,16.30
2023-03-29T19:52:13.973Z,10.57
2023-03-29T19:54:40.482Z,9.52
2023-03-29T19:57:09.070Z,11.40
2023-03-29T19:59:37.763Z,13.85
2023-03-29T20:02:04.622Z,9.93
2023-03-29T20:04:33.210Z,14.73
2023-03-29T20:06:59.922Z,14.32
2023-03-29T20:09:26.369Z,12.15
2023-03-29T20:11:52.837Z,10.88
2023-03-29T20:14:19.331Z,11.27
2023-03-29T20:16:46.249Z,10.02
2023-03-29T20:19:14.089Z,14.98
2023-03-29T20:21:40.793Z,8.95
2023-03-29T20:24:08.622Z,9.85
2023-03-29T20:26:35.431Z,9.30
2023-03-29T20:29:02.121Z,11.32
2023-03-29T20:31:29.532Z,10.10
2023-03-29T20:33:57.557Z,8.95
2023-03-29T20:36:24.564Z,10.60
2023-03-29T20:38:51.346Z,12.13
2023-03-29T20:41:19.514Z,10.57
2023-03-29T20:43:46.195Z,11.27
2023-03-29T20:46:18.282Z,13.45
2023-03-29T20:48:54.488Z,14.60
2023-03-29T20:51:21.649Z,13.30
2023-03-29T20:53:48.178Z,10.13
2023-03-29T20:56:14.877Z,19.95
2023-03-29T20:58:42.095Z,12.18
2023-03-29T21:01:09.925Z,12.15
2023-03-29T21:03:37.348Z,14.10
2023-03-29T21:06:04.040Z,13.13
2023-03-29T21:08:30.915Z,12.65
2023-03-29T21:10:57.532Z,10.25
2023-03-29T21:13:24.032Z,13.52
2023-03-29T21:15:51.012Z,13.20
2023-03-29T21:18:18.047Z,11.40
2023-03-29T21:20:44.741Z,11.80
2023-03-29T21:23:11.184Z,13.75
2023-03-29T21:25:38.021Z,15.68
2023-03-29T21:28:04.518Z,16.10
2023-03-29T21:30:32.176Z,14.50
2023-03-29T21:32:58.964Z,14.65
2023-03-29T21:35:25.610Z,14.27
2023-03-29T21:37:52.588Z,15.43
2023-03-29T21:40:19.132Z,19.17
2023-03-29T21:42:45.725Z,12.95
2023-03-29T21:45:12.222Z,14.60
2023-03-29T21:47:38.782Z,13.52
2023-03-29T21:50:05.906Z,18.85
2023-03-29T21:52:32.355Z,14.73
2023-03-29T21:54:58.917Z,17.25
2023-03-29T21:57:25.515Z,15.68
2023-03-29T21:59:52.106Z,15.75
2023-03-29T22:02:18.799Z,22.55
2023-03-29T22:04:45.532Z,19.15
2023-03-29T22:07:12.409Z,23.33
2023-03-29T22:09:41.358Z,20.98
2023-03-29T22:12:08.138Z,26.23
2023-03-29T22:14:35.115Z,21.40
2023-03-29T22:17:02.511Z,27.15
2023-03-29T22:19:28.976Z,24.38
2023-03-29T22:22:01.315Z,25.13
2023-03-29T22:24:28.914Z,20.40
2023-03-29T22:26:55.621Z,27.75
2023-03-29T22:29:22.074Z,25.85
2023-03-29T22:31:48.642Z,24.95
2023-03-29T22:34:15.340Z,22.10
2023-03-29T22:36:41.894Z,21.30
2023-03-29T22:39:09.105Z,26.90
2023-03-29T22:41:36.080Z,29.35
2023-03-29T22:44:02.590Z,30.25
2023-03-29T22:46:29.271Z,28.15
2023-03-29T22:48:55.802Z,27.98
2023-03-29T22:51:22.286Z,24.63
2023-03-29T22:53:48.832Z,26.45
2023-03-29T22:56:16.256Z,29.80
2023-03-29T22:58:42.881Z,29.58
2023-03-29T23:01:09.712Z,27.90
2023-03-29T23:03:36.753Z,29.60
2023-03-29T23:06:03.441Z,28.20
2023-03-29T23:08:31.007Z,29.90
2023-03-29T23:10:57.575Z,26.10
2023-03-29T23:13:25.834Z,27.63
2023-03-29T23:15:56.751Z,29.65
2023-03-29T23:18:23.586Z,25.92
2023-03-29T23:20:51.630Z,32.95
2023-03-29T23:23:18.987Z,29.83
2023-03-29T23:25:46.489Z,25.60
2023-03-29T23:28:13.730Z,26.92
2023-03-29T23:30:40.858Z,28.77
2023-03-29T23:33:07.365Z,28.20
2023-03-29T23:35:33.906Z,31.15
2023-03-29T23:38:00.763Z,32.10
2023-03-29T23:40:27.749Z,26.90
2023-03-29T23:42:59.231Z,30.17
2023-03-29T23:45:29.101Z,23.20
2023-03-29T23:47:55.978Z,24.10
2023-03-29T23:50:22.712Z,27.73
2023-03-29T23:52:49.628Z,26.45
2023-03-29T23:55:16.134Z,26.17
2023-03-29T23:57:42.629Z,24.92
